sensor_id;sensor_type;location;lat;lon;timestamp;pressure;altitude;pressure_sealevel;temperature;humidity
76132;BME280;64877;50.994;13.650;2023-04-30T00:02:09;99950.66;;;10.95;75.29
76132;BME280;64877;50.994;13.650;2023-04-30T00:04:35;99947.19;;;10.93;75.88
76132;BME280;64877;50.994;13.650;2023-04-30T00:07:01;99950.03;;;10.92;75.85
76132;BME280;64877;50.994;13.650;2023-04-30T00:09:26;99948.31;;;10.91;76.06
76132;BME280;64877;50.994;13.650;2023-04-30T00:11:52;99956.28;;;10.92;75.43
76132;BME280;64877;50.994;13.650;2023-04-30T00:14:17;99957.38;;;10.90;75.22
76132;BME280;64877;50.994;13.650;2023-04-30T00:16:42;99958.25;;;10.90;76.00
76132;BME280;64877;50.994;13.650;2023-04-30T00:19:08;99955.53;;;10.90;74.42
76132;BME280;64877;50.994;13.650;2023-04-30T00:21:34;99952.19;;;10.86;74.17
76132;BME280;64877;50.994;13.650;2023-04-30T00:23:59;99960.19;;;10.88;74.38
76132;BME280;64877;50.994;13.650;2023-04-30T00:26:25;99961.03;;;10.88;74.09
76132;BME280;64877;50.994;13.650;2023-04-30T00:28:51;99961.16;;;10.87;73.92
76132;BME280;64877;50.994;13.650;2023-04-30T00:31:16;99961.28;;;10.85;73.83
76132;BME280;64877;50.994;13.650;2023-04-30T00:33:41;99963.13;;;10.85;72.46
76132;BME280;64877;50.994;13.650;2023-04-30T00:36:07;99972.19;;;10.84;72.68
76132;BME280;64877;50.994;13.650;2023-04-30T00:38:32;99966.25;;;10.79;73.01
76132;BME280;64877;50.994;13.650;2023-04-30T00:40:57;99966.91;;;10.82;72.98
76132;BME280;64877;50.994;13.650;2023-04-30T00:43:23;99973.94;;;10.85;73.07
76132;BME280;64877;50.994;13.650;2023-04-30T00:45:48;99971.44;;;10.82;73.16
76132;BME280;64877;50.994;13.650;2023-04-30T00:48:14;99980.53;;;10.81;72.95
76132;BME280;64877;50.994;13.650;2023-04-30T00:50:40;99980.41;;;10.82;72.75
76132;BME280;64877;50.994;13.650;2023-04-30T00:53:08;99980.34;;;10.71;73.06
76132;BME280;64877;50.994;13.650;2023-04-30T00:55:33;99983.59;;;10.64;73.21
76132;BME280;64877;50.994;13.650;2023-04-30T00:57:59;99988.03;;;10.65;73.18
76132;BME280;64877;50.994;13.650;2023-04-30T01:00:26;99982.66;;;10.65;73.86
76132;BME280;64877;50.994;13.650;2023-04-30T01:02:52;99991.59;;;10.65;74.01
76132;BME280;64877;50.994;13.650;2023-04-30T01:05:17;99996.47;;;10.60;74.24
76132;BME280;64877;50.994;13.650;2023-04-30T01:07:44;99995.94;;;10.55;74.86
76132;BME280;64877;50.994;13.650;2023-04-30T01:10:12;99998.97;;;10.50;74.98
76132;BME280;64877;50.994;13.650;2023-04-30T01:16:06;99998.66;;;10.42;75.39
76132;BME280;64877;50.994;13.650;2023-04-30T01:18:40;100006.44;;;10.34;75.36
76132;BME280;64877;50.994;13.650;2023-04-30T01:21:07;100005.88;;;10.29;75.10
76132;BME280;64877;50.994;13.650;2023-04-30T01:24:01;100002.84;;;10.21;75.78
76132;BME280;64877;50.994;13.650;2023-04-30T01:29:05;100017.97;;;10.10;75.57
76132;BME280;64877;50.994;13.650;2023-04-30T01:31:31;100016.88;;;10.00;75.53
76132;BME280;64877;50.994;13.650;2023-04-30T01:33:56;100023.13;;;10.01;75.67
76132;BME280;64877;50.994;13.650;2023-04-30T01:39:47;100028.94;;;9.82;75.59
76132;BME280;64877;50.994;13.650;2023-04-30T01:42:23;100030.88;;;9.80;75.25
76132;BME280;64877;50.994;13.650;2023-04-30T01:47:34;100033.22;;;9.72;75.00
76132;BME280;64877;50.994;13.650;2023-04-30T01:50:19;100029.97;;;9.67;74.90
76132;BME280;64877;50.994;13.650;2023-04-30T01:52:58;100042.50;;;9.68;74.90
76132;BME280;64877;50.994;13.650;2023-04-30T01:55:33;100043.88;;;9.61;74.48
76132;BME280;64877;50.994;13.650;2023-04-30T01:58:04;100048.81;;;9.54;74.53
76132;BME280;64877;50.994;13.650;2023-04-30T02:00:31;100057.44;;;9.59;75.15
76132;BME280;64877;50.994;13.650;2023-04-30T02:02:56;100056.81;;;9.55;74.86
76132;BME280;64877;50.994;13.650;2023-04-30T02:05:22;100060.69;;;9.51;74.36
76132;BME280;64877;50.994;13.650;2023-04-30T02:07:49;100076.28;;;9.46;74.37
76132;BME280;64877;50.994;13.650;2023-04-30T02:10:16;100076.97;;;9.50;74.52
76132;BME280;64877;50.994;13.650;2023-04-30T02:12:41;100079.56;;;9.51;74.38
76132;BME280;64877;50.994;13.650;2023-04-30T02:15:08;100079.31;;;9.54;74.35
76132;BME280;64877;50.994;13.650;2023-04-30T02:17:33;100089.25;;;9.54;74.36
76132;BME280;64877;50.994;13.650;2023-04-30T02:19:59;100096.69;;;9.50;74.50
76132;BME280;64877;50.994;13.650;2023-04-30T02:22:25;100093.78;;;9.53;73.75
76132;BME280;64877;50.994;13.650;2023-04-30T02:24:50;100095.91;;;9.48;73.65
76132;BME280;64877;50.994;13.650;2023-04-30T02:27:20;100109.50;;;9.47;74.01
76132;BME280;64877;50.994;13.650;2023-04-30T02:29:45;100100.03;;;9.54;73.94
76132;BME280;64877;50.994;13.650;2023-04-30T02:32:11;100108.53;;;9.48;74.08
76132;BME280;64877;50.994;13.650;2023-04-30T02:34:36;100113.56;;;9.40;74.14
76132;BME280;64877;50.994;13.650;2023-04-30T02:37:02;100110.50;;;9.31;74.62
76132;BME280;64877;50.994;13.650;2023-04-30T02:39:27;100109.84;;;9.28;74.55
76132;BME280;64877;50.994;13.650;2023-04-30T02:41:52;100111.22;;;9.21;74.22
76132;BME280;64877;50.994;13.650;2023-04-30T02:44:18;100119.03;;;9.11;74.90
76132;BME280;64877;50.994;13.650;2023-04-30T02:46:43;100121.44;;;9.01;75.20
76132;BME280;64877;50.994;13.650;2023-04-30T02:49:09;100126.16;;;8.98;75.34
76132;BME280;64877;50.994;13.650;2023-04-30T02:51:34;100124.81;;;8.91;75.11
76132;BME280;64877;50.994;13.650;2023-04-30T02:53:59;100125.28;;;8.97;75.25
76132;BME280;64877;50.994;13.650;2023-04-30T02:56:25;100128.75;;;8.99;74.94
76132;BME280;64877;50.994;13.650;2023-04-30T02:58:50;100134.63;;;8.92;74.53
76132;BME280;64877;50.994;13.650;2023-04-30T03:01:15;100142.88;;;8.89;74.59
76132;BME280;64877;50.994;13.650;2023-04-30T03:03:41;100139.72;;;8.82;74.71
76132;BME280;64877;50.994;13.650;2023-04-30T03:06:06;100140.13;;;8.76;74.66
76132;BME280;64877;50.994;13.650;2023-04-30T03:08:32;100147.41;;;8.74;74.97
76132;BME280;64877;50.994;13.650;2023-04-30T03:10:57;100143.00;;;8.73;74.67
76132;BME280;64877;50.994;13.650;2023-04-30T03:13:23;100149.72;;;8.66;75.13
76132;BME280;64877;50.994;13.650;2023-04-30T03:15:57;100156.16;;;8.63;75.04
76132;BME280;64877;50.994;13.650;2023-04-30T03:18:23;100151.16;;;8.57;75.13
76132;BME280;64877;50.994;13.650;2023-04-30T03:20:49;100156.03;;;8.65;74.76
76132;BME280;64877;50.994;13.650;2023-04-30T03:23:14;100154.16;;;8.81;73.92
76132;BME280;64877;50.994;13.650;2023-04-30T03:25:40;100167.22;;;8.73;74.57
76132;BME280;64877;50.994;13.650;2023-04-30T03:28:05;100178.00;;;8.73;74.09
76132;BME280;64877;50.994;13.650;2023-04-30T03:30:31;100175.69;;;8.81;73.85
76132;BME280;64877;50.994;13.650;2023-04-30T03:32:56;100171.63;;;8.74;73.93
76132;BME280;64877;50.994;13.650;2023-04-30T03:35:21;100171.19;;;8.82;74.15
76132;BME280;64877;50.994;13.650;2023-04-30T03:37:47;100173.28;;;8.76;73.87
76132;BME280;64877;50.994;13.650;2023-04-30T03:40:12;100177.22;;;8.71;73.97
76132;BME280;64877;50.994;13.650;2023-04-30T03:42:38;100172.16;;;8.80;73.83
76132;BME280;64877;50.994;13.650;2023-04-30T03:45:03;100180.88;;;8.70;74.39
76132;BME280;64877;50.994;13.650;2023-04-30T03:47:29;100187.03;;;8.72;74.03
76132;BME280;64877;50.994;13.650;2023-04-30T03:49:54;100188.34;;;8.65;74.45
76132;BME280;64877;50.994;13.650;2023-04-30T03:52:20;100195.22;;;8.70;74.01
76132;BME280;64877;50.994;13.650;2023-04-30T03:54:46;100190.19;;;8.64;74.20
76132;BME280;64877;50.994;13.650;2023-04-30T03:57:11;100194.41;;;8.54;74.31
76132;BME280;64877;50.994;13.650;2023-04-30T03:59:38;100194.41;;;8.54;74.64
76132;BME280;64877;50.994;13.650;2023-04-30T04:02:04;100196.81;;;8.59;73.99
76132;BME280;64877;50.994;13.650;2023-04-30T04:04:30;100200.47;;;8.58;74.61
76132;BME280;64877;50.994;13.650;2023-04-30T04:06:56;100193.16;;;8.60;74.07
76132;BME280;64877;50.994;13.650;2023-04-30T04:09:21;100198.63;;;8.58;73.46
76132;BME280;64877;50.994;13.650;2023-04-30T04:11:47;100200.09;;;8.64;74.75
76132;BME280;64877;50.994;13.650;2023-04-30T04:14:12;100212.00;;;8.60;74.65
76132;BME280;64877;50.994;13.650;2023-04-30T04:16:38;100213.34;;;8.52;74.14
76132;BME280;64877;50.994;13.650;2023-04-30T04:19:03;100218.25;;;8.46;74.87
76132;BME280;64877;50.994;13.650;2023-04-30T04:21:29;100223.09;;;8.39;74.97
76132;BME280;64877;50.994;13.650;2023-04-30T04:23:55;100229.31;;;8.56;74.01
76132;BME280;64877;50.994;13.650;2023-04-30T04:26:20;100225.84;;;8.53;73.84
76132;BME280;64877;50.994;13.650;2023-04-30T04:28:49;100228.63;;;8.52;73.41
76132;BME280;64877;50.994;13.650;2023-04-30T04:31:15;100226.31;;;8.60;73.82
76132;BME280;64877;50.994;13.650;2023-04-30T04:33:40;100232.41;;;8.64;73.39
76132;BME280;64877;50.994;13.650;2023-04-30T04:36:06;100242.16;;;8.80;73.00
76132;BME280;64877;50.994;13.650;2023-04-30T04:38:31;100238.69;;;8.78;72.48
76132;BME280;64877;50.994;13.650;2023-04-30T04:40:57;100243.63;;;9.00;71.99
76132;BME280;64877;50.994;13.650;2023-04-30T04:43:23;100239.47;;;8.80;72.72
76132;BME280;64877;50.994;13.650;2023-04-30T04:45:48;100251.84;;;8.69;72.79
76132;BME280;64877;50.994;13.650;2023-04-30T04:48:14;100248.38;;;8.67;73.50
76132;BME280;64877;50.994;13.650;2023-04-30T04:50:39;100256.56;;;8.65;74.10
76132;BME280;64877;50.994;13.650;2023-04-30T04:53:05;100262.66;;;8.83;73.68
76132;BME280;64877;50.994;13.650;2023-04-30T04:55:30;100260.53;;;8.88;72.63
76132;BME280;64877;50.994;13.650;2023-04-30T04:57:56;100261.31;;;8.90;72.50
76132;BME280;64877;50.994;13.650;2023-04-30T05:00:21;100268.94;;;9.12;72.16
76132;BME280;64877;50.994;13.650;2023-04-30T05:02:47;100271.44;;;9.44;70.14
76132;BME280;64877;50.994;13.650;2023-04-30T05:05:12;100267.97;;;9.70;70.22
76132;BME280;64877;50.994;13.650;2023-04-30T05:07:38;100258.78;;;10.28;67.73
76132;BME280;64877;50.994;13.650;2023-04-30T05:10:04;100256.88;;;10.43;67.96
76132;BME280;64877;50.994;13.650;2023-04-30T05:12:29;100256.38;;;10.51;66.13
76132;BME280;64877;50.994;13.650;2023-04-30T05:14:55;100259.56;;;10.70;66.02
76132;BME280;64877;50.994;13.650;2023-04-30T05:17:20;100269.00;;;10.90;64.74
76132;BME280;64877;50.994;13.650;2023-04-30T05:19:45;100269.78;;;11.05;65.46
76132;BME280;64877;50.994;13.650;2023-04-30T05:22:13;100280.56;;;10.79;65.32
76132;BME280;64877;50.994;13.650;2023-04-30T05:24:38;100287.13;;;10.48;65.48
76132;BME280;64877;50.994;13.650;2023-04-30T05:27:04;100282.28;;;10.41;65.97
76132;BME280;64877;50.994;13.650;2023-04-30T05:29:29;100283.94;;;10.29;65.91
76132;BME280;64877;50.994;13.650;2023-04-30T05:31:55;100279.50;;;10.28;65.52
76132;BME280;64877;50.994;13.650;2023-04-30T05:34:21;100288.28;;;9.76;66.45
76132;BME280;64877;50.994;13.650;2023-04-30T05:36:46;100297.22;;;9.91;67.04
76132;BME280;64877;50.994;13.650;2023-04-30T05:39:12;100294.34;;;9.79;67.14
76132;BME280;64877;50.994;13.650;2023-04-30T05:41:37;100291.56;;;9.81;67.26
76132;BME280;64877;50.994;13.650;2023-04-30T05:44:02;100297.28;;;10.03;68.25
76132;BME280;64877;50.994;13.650;2023-04-30T05:46:29;100293.88;;;10.14;66.53
76132;BME280;64877;50.994;13.650;2023-04-30T05:48:54;100286.34;;;10.33;67.29
76132;BME280;64877;50.994;13.650;2023-04-30T05:51:20;100298.25;;;10.71;66.87
76132;BME280;64877;50.994;13.650;2023-04-30T05:53:45;100295.72;;;11.07;65.54
76132;BME280;64877;50.994;13.650;2023-04-30T05:56:11;100295.72;;;11.07;63.78
76132;BME280;64877;50.994;13.650;2023-04-30T05:58:38;100298.13;;;11.25;63.23
76132;BME280;64877;50.994;13.650;2023-04-30T06:01:03;100295.63;;;11.22;63.68
76132;BME280;64877;50.994;13.650;2023-04-30T06:03:29;100291.63;;;11.15;63.05
76132;BME280;64877;50.994;13.650;2023-04-30T06:05:55;100289.00;;;11.00;63.41
76132;BME280;64877;50.994;13.650;2023-04-30T06:08:20;100304.28;;;11.14;63.08
76132;BME280;64877;50.994;13.650;2023-04-30T06:10:46;100305.13;;;11.15;63.91
76132;BME280;64877;50.994;13.650;2023-04-30T06:13:11;100305.03;;;11.16;63.60
76132;BME280;64877;50.994;13.650;2023-04-30T06:15:38;100305.03;;;11.16;64.03
76132;BME280;64877;50.994;13.650;2023-04-30T06:18:04;100299.06;;;11.24;63.61
76132;BME280;64877;50.994;13.650;2023-04-30T06:20:30;100298.34;;;11.34;63.96
76132;BME280;64877;50.994;13.650;2023-04-30T06:22:55;100305.66;;;11.58;62.47
76132;BME280;64877;50.994;13.650;2023-04-30T06:25:20;100312.28;;;11.54;61.88
76132;BME280;64877;50.994;13.650;2023-04-30T06:27:46;100304.59;;;11.35;62.42
76132;BME280;64877;50.994;13.650;2023-04-30T06:30:12;100301.34;;;11.30;61.72
76132;BME280;64877;50.994;13.650;2023-04-30T06:32:37;100305.66;;;10.94;62.53
76132;BME280;64877;50.994;13.650;2023-04-30T06:35:03;100308.00;;;10.86;62.97
76132;BME280;64877;50.994;13.650;2023-04-30T06:37:28;100308.66;;;10.90;63.88
76132;BME280;64877;50.994;13.650;2023-04-30T06:39:54;100308.88;;;10.86;63.43
76132;BME280;64877;50.994;13.650;2023-04-30T06:42:19;100306.16;;;10.86;63.48
76132;BME280;64877;50.994;13.650;2023-04-30T06:44:45;100296.03;;;10.90;63.51
76132;BME280;64877;50.994;13.650;2023-04-30T06:47:11;100308.19;;;10.83;63.35
76132;BME280;64877;50.994;13.650;2023-04-30T06:49:36;100303.47;;;10.86;62.82
76132;BME280;64877;50.994;13.650;2023-04-30T06:52:02;100304.19;;;10.76;62.96
76132;BME280;64877;50.994;13.650;2023-04-30T06:54:27;100307.53;;;10.67;63.48
76132;BME280;64877;50.994;13.650;2023-04-30T06:56:53;100305.84;;;10.51;64.52
76132;BME280;64877;50.994;13.650;2023-04-30T06:59:18;100308.56;;;10.64;64.71
76132;BME280;64877;50.994;13.650;2023-04-30T07:01:44;100302.00;;;10.68;64.46
76132;BME280;64877;50.994;13.650;2023-04-30T07:04:09;100306.66;;;10.66;64.46
76132;BME280;64877;50.994;13.650;2023-04-30T07:06:34;100312.13;;;10.52;64.61
76132;BME280;64877;50.994;13.650;2023-04-30T07:09:01;100311.25;;;10.51;64.58
76132;BME280;64877;50.994;13.650;2023-04-30T07:11:26;100322.81;;;10.53;64.29
76132;BME280;64877;50.994;13.650;2023-04-30T07:13:52;100324.09;;;10.48;64.15
76132;BME280;64877;50.994;13.650;2023-04-30T07:16:17;100314.63;;;10.55;64.17
76132;BME280;64877;50.994;13.650;2023-04-30T07:18:43;100319.84;;;10.71;63.41
76132;BME280;64877;50.994;13.650;2023-04-30T07:21:08;100313.66;;;10.69;62.46
76132;BME280;64877;50.994;13.650;2023-04-30T07:23:34;100318.75;;;10.73;62.75
76132;BME280;64877;50.994;13.650;2023-04-30T07:25:59;100312.31;;;10.76;63.64
76132;BME280;64877;50.994;13.650;2023-04-30T07:28:25;100318.81;;;10.59;63.89
76132;BME280;64877;50.994;13.650;2023-04-30T07:30:50;100320.84;;;10.70;63.87
76132;BME280;64877;50.994;13.650;2023-04-30T07:33:17;100316.31;;;10.83;62.88
76132;BME280;64877;50.994;13.650;2023-04-30T07:35:42;100308.00;;;10.99;62.10
76132;BME280;64877;50.994;13.650;2023-04-30T07:38:08;100311.72;;;11.10;61.92
76132;BME280;64877;50.994;13.650;2023-04-30T07:40:33;100317.03;;;11.25;62.09
76132;BME280;64877;50.994;13.650;2023-04-30T07:42:58;100331.63;;;11.09;63.04
76132;BME280;64877;50.994;13.650;2023-04-30T07:45:24;100331.81;;;11.06;62.24
76132;BME280;64877;50.994;13.650;2023-04-30T07:47:49;100321.63;;;10.97;62.07
76132;BME280;64877;50.994;13.650;2023-04-30T07:50:15;100329.13;;;11.06;61.20
76132;BME280;64877;50.994;13.650;2023-04-30T07:52:41;100328.81;;;11.24;61.82
76132;BME280;64877;50.994;13.650;2023-04-30T07:55:07;100327.72;;;11.26;61.13
76132;BME280;64877;50.994;13.650;2023-04-30T07:57:32;100333.47;;;11.22;61.57
76132;BME280;64877;50.994;13.650;2023-04-30T07:59:57;100329.22;;;11.05;61.49
76132;BME280;64877;50.994;13.650;2023-04-30T08:02:23;100337.84;;;10.97;61.92
76132;BME280;64877;50.994;13.650;2023-04-30T08:04:48;100336.78;;;11.00;61.63
76132;BME280;64877;50.994;13.650;2023-04-30T08:07:14;100336.91;;;11.11;61.81
76132;BME280;64877;50.994;13.650;2023-04-30T08:09:42;100339.31;;;11.16;62.17
76132;BME280;64877;50.994;13.650;2023-04-30T08:12:08;100336.25;;;11.07;61.64
76132;BME280;64877;50.994;13.650;2023-04-30T08:14:33;100333.34;;;11.10;61.88
76132;BME280;64877;50.994;13.650;2023-04-30T08:16:59;100331.47;;;10.98;62.64
76132;BME280;64877;50.994;13.650;2023-04-30T08:19:26;100350.38;;;10.98;62.55
76132;BME280;64877;50.994;13.650;2023-04-30T08:21:51;100346.75;;;11.12;62.29
76132;BME280;64877;50.994;13.650;2023-04-30T08:24:17;100346.78;;;11.50;62.93
76132;BME280;64877;50.994;13.650;2023-04-30T08:26:42;100337.91;;;11.74;61.54
76132;BME280;64877;50.994;13.650;2023-04-30T08:29:08;100344.59;;;12.06;61.40
76132;BME280;64877;50.994;13.650;2023-04-30T08:31:34;100343.84;;;12.41;62.41
76132;BME280;64877;50.994;13.650;2023-04-30T08:34:00;100338.78;;;12.60;61.31
76132;BME280;64877;50.994;13.650;2023-04-30T08:36:25;100331.19;;;12.65;59.03
76132;BME280;64877;50.994;13.650;2023-04-30T08:38:51;100336.59;;;12.65;59.48
76132;BME280;64877;50.994;13.650;2023-04-30T08:41:19;100333.63;;;12.92;56.87
76132;BME280;64877;50.994;13.650;2023-04-30T08:43:51;100334.91;;;13.46;57.29
76132;BME280;64877;50.994;13.650;2023-04-30T08:46:19;100333.72;;;13.15;56.22
76132;BME280;64877;50.994;13.650;2023-04-30T08:48:45;100330.22;;;13.02;57.94
76132;BME280;64877;50.994;13.650;2023-04-30T08:51:12;100334.19;;;12.74;56.00
76132;BME280;64877;50.994;13.650;2023-04-30T08:53:39;100331.03;;;12.43;56.51
76132;BME280;64877;50.994;13.650;2023-04-30T08:56:04;100336.69;;;13.58;56.76
76132;BME280;64877;50.994;13.650;2023-04-30T08:58:30;100337.91;;;14.10;53.04
76132;BME280;64877;50.994;13.650;2023-04-30T09:01:00;100332.59;;;13.86;52.72
76132;BME280;64877;50.994;13.650;2023-04-30T09:03:25;100350.19;;;13.36;54.42
76132;BME280;64877;50.994;13.650;2023-04-30T09:05:53;100337.50;;;12.77;56.31
76132;BME280;64877;50.994;13.650;2023-04-30T09:08:42;100346.28;;;12.57;57.38
76132;BME280;64877;50.994;13.650;2023-04-30T09:11:29;100349.84;;;12.81;56.29
76132;BME280;64877;50.994;13.650;2023-04-30T09:14:00;100340.84;;;13.16;56.47
76132;BME280;64877;50.994;13.650;2023-04-30T09:16:43;100340.97;;;13.61;54.65
76132;BME280;64877;50.994;13.650;2023-04-30T09:19:22;100349.13;;;13.50;52.84
76132;BME280;64877;50.994;13.650;2023-04-30T09:21:47;100343.69;;;13.14;52.98
76132;BME280;64877;50.994;13.650;2023-04-30T09:24:13;100350.16;;;13.25;53.25
76132;BME280;64877;50.994;13.650;2023-04-30T09:26:38;100340.34;;;13.57;53.32
76132;BME280;64877;50.994;13.650;2023-04-30T09:29:04;100345.31;;;13.63;54.05
76132;BME280;64877;50.994;13.650;2023-04-30T09:31:35;100350.69;;;13.41;54.72
76132;BME280;64877;50.994;13.650;2023-04-30T09:34:02;100335.28;;;13.06;54.46
76132;BME280;64877;50.994;13.650;2023-04-30T09:36:28;100338.47;;;13.00;54.26
76132;BME280;64877;50.994;13.650;2023-04-30T09:38:54;100335.09;;;12.85;52.24
76132;BME280;64877;50.994;13.650;2023-04-30T09:41:24;100344.78;;;12.77;54.30
76132;BME280;64877;50.994;13.650;2023-04-30T09:43:51;100340.69;;;13.06;52.87
76132;BME280;64877;50.994;13.650;2023-04-30T09:46:18;100336.88;;;13.33;52.98
76132;BME280;64877;50.994;13.650;2023-04-30T09:48:44;100347.00;;;13.42;54.56
76132;BME280;64877;50.994;13.650;2023-04-30T09:51:09;100333.22;;;13.21;52.02
76132;BME280;64877;50.994;13.650;2023-04-30T09:53:40;100328.34;;;13.02;51.47
76132;BME280;64877;50.994;13.650;2023-04-30T09:56:07;100326.75;;;13.00;52.17
76132;BME280;64877;50.994;13.650;2023-04-30T09:58:36;100330.03;;;12.92;49.84
76132;BME280;64877;50.994;13.650;2023-04-30T10:01:07;100324.59;;;13.16;51.22
76132;BME280;64877;50.994;13.650;2023-04-30T10:03:37;100314.84;;;13.13;50.78
76132;BME280;64877;50.994;13.650;2023-04-30T10:06:06;100320.28;;;13.13;50.37
76132;BME280;64877;50.994;13.650;2023-04-30T10:08:39;100319.25;;;13.50;51.53
76132;BME280;64877;50.994;13.650;2023-04-30T10:11:09;100317.91;;;13.55;53.60
76132;BME280;64877;50.994;13.650;2023-04-30T10:13:59;100316.78;;;13.47;49.42
76132;BME280;64877;50.994;13.650;2023-04-30T10:17:04;100313.59;;;13.06;49.23
76132;BME280;64877;50.994;13.650;2023-04-30T10:19:33;100313.69;;;12.93;48.55
76132;BME280;64877;50.994;13.650;2023-04-30T10:22:00;100312.94;;;13.03;51.34
76132;BME280;64877;50.994;13.650;2023-04-30T10:24:26;100307.16;;;13.07;48.68
76132;BME280;64877;50.994;13.650;2023-04-30T10:26:52;100299.63;;;13.46;48.50
76132;BME280;64877;50.994;13.650;2023-04-30T10:29:19;100304.72;;;13.62;50.19
76132;BME280;64877;50.994;13.650;2023-04-30T10:31:46;100300.63;;;13.34;48.60
76132;BME280;64877;50.994;13.650;2023-04-30T10:36:50;100297.25;;;12.84;45.96
76132;BME280;64877;50.994;13.650;2023-04-30T10:39:22;100299.69;;;12.76;47.32
76132;BME280;64877;50.994;13.650;2023-04-30T10:42:00;100296.63;;;12.80;47.41
76132;BME280;64877;50.994;13.650;2023-04-30T10:44:26;100291.78;;;12.73;49.60
76132;BME280;64877;50.994;13.650;2023-04-30T10:46:58;100300.66;;;12.75;51.87
76132;BME280;64877;50.994;13.650;2023-04-30T10:49:24;100298.38;;;12.92;51.52
76132;BME280;64877;50.994;13.650;2023-04-30T10:51:51;100303.22;;;13.00;50.63
76132;BME280;64877;50.994;13.650;2023-04-30T10:54:34;100298.06;;;13.08;49.84
76132;BME280;64877;50.994;13.650;2023-04-30T10:57:14;100294.09;;;13.01;49.03
76132;BME280;64877;50.994;13.650;2023-04-30T11:02:43;100289.31;;;12.70;49.89
76132;BME280;64877;50.994;13.650;2023-04-30T11:05:11;100283.91;;;12.70;50.00
76132;BME280;64877;50.994;13.650;2023-04-30T11:07:37;100271.16;;;12.59;48.43
76132;BME280;64877;50.994;13.650;2023-04-30T11:10:10;100278.78;;;12.54;48.68
76132;BME280;64877;50.994;13.650;2023-04-30T11:12:37;100278.84;;;12.41;45.75
76132;BME280;64877;50.994;13.650;2023-04-30T11:15:10;100276.25;;;12.39;46.96
76132;BME280;64877;50.994;13.650;2023-04-30T11:17:36;100279.69;;;12.41;47.84
76132;BME280;64877;50.994;13.650;2023-04-30T11:20:03;100272.59;;;12.52;51.01
76132;BME280;64877;50.994;13.650;2023-04-30T11:22:29;100272.50;;;12.53;51.90
76132;BME280;64877;50.994;13.650;2023-04-30T11:25:07;100268.56;;;12.57;50.69
76132;BME280;64877;50.994;13.650;2023-04-30T11:27:34;100277.28;;;12.50;51.10
76132;BME280;64877;50.994;13.650;2023-04-30T11:30:01;100268.56;;;12.57;49.54
76132;BME280;64877;50.994;13.650;2023-04-30T11:32:35;100271.25;;;12.57;50.44
76132;BME280;64877;50.994;13.650;2023-04-30T11:35:01;100277.09;;;12.64;51.06
76132;BME280;64877;50.994;13.650;2023-04-30T11:37:32;100276.50;;;12.72;50.10
76132;BME280;64877;50.994;13.650;2023-04-30T11:40:05;100282.09;;;12.57;48.70
76132;BME280;64877;50.994;13.650;2023-04-30T11:42:32;100267.47;;;12.60;47.85
76132;BME280;64877;50.994;13.650;2023-04-30T11:45:10;100273.25;;;12.55;47.27
76132;BME280;64877;50.994;13.650;2023-04-30T11:47:47;100273.19;;;12.44;47.09
76132;BME280;64877;50.994;13.650;2023-04-30T11:50:14;100278.84;;;12.41;49.16
76132;BME280;64877;50.994;13.650;2023-04-30T11:52:40;100274.34;;;12.29;50.61
76132;BME280;64877;50.994;13.650;2023-04-30T11:55:14;100273.28;;;12.42;51.64
76132;BME280;64877;50.994;13.650;2023-04-30T11:57:45;100265.34;;;12.52;50.91
76132;BME280;64877;50.994;13.650;2023-04-30T12:00:18;100260.00;;;12.75;51.38
76132;BME280;64877;50.994;13.650;2023-04-30T12:02:46;100255.50;;;12.98;50.83
76132;BME280;64877;50.994;13.650;2023-04-30T12:05:15;100259.84;;;13.00;50.90
76132;BME280;64877;50.994;13.650;2023-04-30T12:08:04;100259.47;;;13.05;50.09
76132;BME280;64877;50.994;13.650;2023-04-30T12:10:33;100252.84;;;13.09;48.44
76132;BME280;64877;50.994;13.650;2023-04-30T12:12:59;100247.50;;;13.07;47.91
76132;BME280;64877;50.994;13.650;2023-04-30T12:15:25;100251.19;;;12.95;48.13
76132;BME280;64877;50.994;13.650;2023-04-30T12:17:52;100249.47;;;12.94;48.74
76132;BME280;64877;50.994;13.650;2023-04-30T12:20:19;100252.91;;;12.96;49.26
76132;BME280;64877;50.994;13.650;2023-04-30T12:22:46;100255.16;;;13.02;50.27
76132;BME280;64877;50.994;13.650;2023-04-30T12:25:13;100250.22;;;12.96;48.87
76132;BME280;64877;50.994;13.650;2023-04-30T12:27:45;100250.72;;;13.01;46.83
76132;BME280;64877;50.994;13.650;2023-04-30T12:30:11;100248.50;;;13.06;47.25
76132;BME280;64877;50.994;13.650;2023-04-30T12:32:41;100247.13;;;13.01;46.74
76132;BME280;64877;50.994;13.650;2023-04-30T12:35:08;100240.13;;;12.98;46.41
76132;BME280;64877;50.994;13.650;2023-04-30T12:37:41;100242.84;;;12.98;47.19
76132;BME280;64877;50.994;13.650;2023-04-30T12:40:07;100245.28;;;12.90;46.44
76132;BME280;64877;50.994;13.650;2023-04-30T12:42:34;100239.97;;;12.88;47.73
76132;BME280;64877;50.994;13.650;2023-04-30T12:45:00;100233.81;;;12.98;48.56
76132;BME280;64877;50.994;13.650;2023-04-30T12:47:26;100235.44;;;13.11;48.85
76132;BME280;64877;50.994;13.650;2023-04-30T12:49:52;100232.50;;;13.14;48.21
76132;BME280;64877;50.994;13.650;2023-04-30T12:52:23;100230.41;;;13.18;48.09
76132;BME280;64877;50.994;13.650;2023-04-30T12:54:48;100221.53;;;13.16;47.86
76132;BME280;64877;50.994;13.650;2023-04-30T12:57:14;100225.09;;;13.16;48.13
76132;BME280;64877;50.994;13.650;2023-04-30T12:59:56;100216.50;;;13.23;47.85
76132;BME280;64877;50.994;13.650;2023-04-30T13:02:28;100218.47;;;13.32;46.94